»·PEaware :: N992CB KOAK-KJAC

N992CB :: KOAK-KJAC

FLIGHT INFORMATION

Flight Status: Arrived
Operator: Privately registered:
United States
More flights under this callsign
Pilot: Cody B. (17747)
Aircraft: BEECH AIRCRAFT PREMIER
(PRM1)
More flights by this aircraft type
Origin: KOAK Metro Oakland Intl
United States
Destination: KJAC Jackson Hole
United States
More flights between these airports :: More routes between these airports
Route: OAK5 DEDHD ILA Q138 PARZZ BYI V365 SABAT V298 RELAE QUIRT
File this flight plan on PilotEdge
Remarks:
Altitude:
(Current/Filed)
35,000ft
Speed:
(Current/Filed)
348kts
Departed: 19-Aug-21 12:15 AM
Arrived: 19-Aug-21 02:25 AM
Distance/Time
Traveled:
630nm/2:09
Distance/Time
To Go:
Arrived

Flight Plot

Page will automatically refresh every two minutes.

Flight plan parsing failed; only flown route is shown


Map Options




Map Legend


Flown Route
Filed Route
Departure Airport
Arrival Airport
Navaid (VOR, NDB)
Fix

Horizontal Profiles

Position Reports

Time Latitude Longitude Heading Altitude Ground
Speed
19-Aug-21 00:03 37.730053 -122.211962 307 10ft 0kts
19-Aug-21 00:04 37.730053 -122.211962 307 10ft 0kts
19-Aug-21 00:05 37.730069 -122.211989 307 10ft 0kts
19-Aug-21 00:06 37.729977 -122.212330 213 10ft 2kts
19-Aug-21 00:07 37.728352 -122.212548 131 10ft 10kts
19-Aug-21 00:08 37.726701 -122.207622 111 10ft 15kts
19-Aug-21 00:09 37.725484 -122.204185 114 10ft 6kts
19-Aug-21 00:10 37.725135 -122.203716 200 10ft 0kts
19-Aug-21 00:11 37.724812 -122.205017 291 10ft 0kts
19-Aug-21 00:12 37.724812 -122.205017 291 10ft 0kts
19-Aug-21 00:13 37.724812 -122.205017 291 10ft 0kts
19-Aug-21 00:14 37.733629 -122.232810 291 1111ft 168kts
19-Aug-21 00:15 37.752599 -122.301515 291 2010ft 243kts
19-Aug-21 00:16 37.783282 -122.371084 344 2250ft 236kts
19-Aug-21 00:17 37.837147 -122.328556 20 6502ft 229kts
19-Aug-21 00:18 37.899050 -122.301195 17 10246ft 249kts
19-Aug-21 00:19 37.967618 -122.271740 16 13355ft 275kts
19-Aug-21 00:20 38.040062 -122.240566 15 16504ft 282kts
19-Aug-21 00:21 38.115246 -122.208144 15 19219ft 292kts
19-Aug-21 00:22 38.193265 -122.174419 15 21633ft 303kts
19-Aug-21 00:23 38.275167 -122.138993 15 23447ft 322kts
19-Aug-21 00:24 38.355957 -122.111088 3 26360ft 296kts
19-Aug-21 00:25 38.436899 -122.101064 1 28563ft 290kts
19-Aug-21 00:26 38.516357 -122.091842 1 30521ft 286kts
19-Aug-21 00:27 38.594044 -122.082874 1 32404ft 277kts
19-Aug-21 00:28 38.669665 -122.074117 1 34043ft 271kts
19-Aug-21 00:29 38.745285 -122.065360 1 34945ft 286kts
19-Aug-21 00:30 38.829212 -122.055609 2 34939ft 311kts
19-Aug-21 00:31 38.911141 -122.045988 2 34932ft 314kts
19-Aug-21 00:32 38.911141 -122.045988 2 34932ft 314kts
19-Aug-21 00:47 39.730611 -120.409189 50 35153ft 358kts
19-Aug-21 00:48 39.775996 -120.294618 51 35148ft 357kts
19-Aug-21 00:49 39.821230 -120.180039 51 35151ft 355kts
19-Aug-21 00:50 39.866283 -120.065888 50 35159ft 354kts
19-Aug-21 00:51 39.911026 -119.952153 50 35165ft 353kts
19-Aug-21 00:52 39.955654 -119.838245 50 35165ft 352kts
19-Aug-21 00:53 40.000027 -119.724556 50 35164ft 352kts
19-Aug-21 00:54 40.044255 -119.610797 50 35164ft 351kts
19-Aug-21 00:55 40.088224 -119.497265 50 35163ft 350kts
19-Aug-21 00:56 40.132067 -119.383657 50 35184ft 351kts
19-Aug-21 00:57 40.176141 -119.268978 51 35178ft 353kts
19-Aug-21 00:58 40.221850 -119.156218 49 35167ft 352kts
19-Aug-21 00:59 40.268834 -119.043791 49 35155ft 352kts
19-Aug-21 01:00 40.315661 -118.931381 49 35132ft 352kts
19-Aug-21 01:01 40.362338 -118.818976 49 35117ft 351kts
19-Aug-21 01:02 40.408831 -118.706521 48 35113ft 350kts
19-Aug-21 01:03 40.455012 -118.594435 48 35111ft 349kts
19-Aug-21 01:04 40.501066 -118.482243 48 35111ft 348kts
19-Aug-21 01:05 40.546786 -118.370421 48 35110ft 347kts
19-Aug-21 01:06 40.592249 -118.258855 49 35106ft 346kts
19-Aug-21 01:07 40.637473 -118.147450 49 35106ft 345kts
19-Aug-21 01:08 40.682466 -118.036232 49 35105ft 344kts
19-Aug-21 01:09 40.727420 -117.924945 50 35105ft 345kts
19-Aug-21 01:10 40.772309 -117.812825 50 35105ft 346kts
19-Aug-21 01:11 40.812497 -117.695599 56 35104ft 355kts
19-Aug-21 01:12 40.848515 -117.573561 57 35104ft 356kts
19-Aug-21 01:13 40.884377 -117.451152 57 35104ft 357kts
19-Aug-21 01:14 40.919477 -117.327931 59 35096ft 361kts
19-Aug-21 01:15 40.956431 -117.205949 60 35088ft 361kts
19-Aug-21 01:16 40.991599 -117.081701 59 35076ft 361kts
19-Aug-21 01:17 41.027360 -116.957257 60 35067ft 362kts
19-Aug-21 01:18 41.063049 -116.832511 61 35060ft 364kts
19-Aug-21 01:19 41.098821 -116.706766 61 35057ft 366kts
19-Aug-21 01:20 41.134677 -116.580238 62 35105ft 368kts
19-Aug-21 01:21 41.170710 -116.452381 62 35105ft 372kts
19-Aug-21 01:22 41.206874 -116.323353 64 35103ft 374kts
19-Aug-21 01:23 41.243985 -116.193679 62 35103ft 375kts
19-Aug-21 01:24 41.284475 -116.065829 62 35099ft 377kts
19-Aug-21 01:25 41.325473 -115.937135 65 35089ft 379kts
19-Aug-21 01:26 41.365929 -115.807069 65 35083ft 382kts
19-Aug-21 01:27 41.406857 -115.676182 65 35078ft 384kts
19-Aug-21 01:28 41.447842 -115.544444 66 35073ft 385kts
19-Aug-21 01:29 41.488751 -115.412320 66 35073ft 387kts
19-Aug-21 01:30 41.529844 -115.278954 68 35066ft 389kts
19-Aug-21 01:31 41.570825 -115.145283 69 35063ft 390kts
19-Aug-21 01:32 41.618377 -115.015540 52 35070ft 395kts
19-Aug-21 01:33 41.702661 -114.919950 42 35061ft 400kts
19-Aug-21 01:34 41.786508 -114.821227 44 35067ft 403kts
19-Aug-21 01:35 41.870924 -114.721215 45 35065ft 407kts
19-Aug-21 01:36 41.956068 -114.619953 45 35072ft 411kts
19-Aug-21 01:37 42.041864 -114.517562 47 35071ft 416kts
19-Aug-21 01:38 42.128625 -114.413557 47 35057ft 420kts
19-Aug-21 01:39 42.215679 -114.308822 48 35056ft 421kts
19-Aug-21 01:40 42.303081 -114.203221 48 35059ft 423kts
19-Aug-21 01:41 42.390510 -114.097302 48 35061ft 424kts
19-Aug-21 01:42 42.478422 -113.990294 49 35052ft 426kts
19-Aug-21 01:43 42.566586 -113.882590 49 35055ft 428kts
19-Aug-21 01:44 42.655080 -113.774099 49 35059ft 430kts
19-Aug-21 01:45 42.743660 -113.665036 49 35068ft 432kts
19-Aug-21 01:46 42.833229 -113.554350 49 35070ft 434kts
19-Aug-21 01:47 42.922287 -113.443882 49 35072ft 436kts
19-Aug-21 01:48 43.012030 -113.332006 50 35074ft 438kts
19-Aug-21 01:49 43.101940 -113.219542 50 35080ft 440kts
19-Aug-21 01:50 43.192062 -113.106314 50 35075ft 439kts
19-Aug-21 01:51 43.251627 -112.971798 86 35078ft 397kts
19-Aug-21 01:52 43.291165 -112.827298 77 35060ft 407kts
19-Aug-21 01:53 43.334417 -112.684111 77 35059ft 407kts
19-Aug-21 01:54 43.377666 -112.540139 78 35062ft 405kts
19-Aug-21 01:55 43.420351 -112.397189 77 35050ft 406kts
19-Aug-21 01:56 43.463111 -112.253544 79 35081ft 405kts
19-Aug-21 01:57 43.505494 -112.109980 78 35074ft 406kts
19-Aug-21 01:58 43.581189 -111.986908 40 35083ft 447kts
19-Aug-21 01:59 43.703268 -111.914352 28 32872ft 501kts
19-Aug-21 02:00 43.823219 -111.821161 36 30246ft 489kts
19-Aug-21 02:01 43.936875 -111.729504 35 27723ft 457kts
19-Aug-21 02:02 44.000507 -111.601207 86 25029ft 389kts
19-Aug-21 02:03 43.988908 -111.462872 106 22512ft 360kts
19-Aug-21 02:04 43.970362 -111.328282 106 20164ft 348kts
19-Aug-21 02:05 43.952361 -111.198671 106 17962ft 337kts
19-Aug-21 02:06 43.934685 -111.072648 104 15818ft 328kts
19-Aug-21 02:07 43.917345 -110.950058 103 14125ft 311kts
19-Aug-21 02:08 43.901876 -110.841193 104 14117ft 275kts
19-Aug-21 02:09 43.887052 -110.738064 103 14119ft 270kts
19-Aug-21 02:10 43.872385 -110.636668 103 14119ft 267kts
19-Aug-21 02:11 43.916492 -110.573560 350 13674ft 292kts
19-Aug-21 02:12 43.988131 -110.611402 332 12726ft 275kts
19-Aug-21 02:13 44.055878 -110.618211 59 11477ft 261kts
19-Aug-21 02:14 44.029420 -110.540419 146 10980ft 243kts
19-Aug-21 02:15 43.967960 -110.564355 198 10994ft 240kts
19-Aug-21 02:16 43.904818 -110.592568 197 11037ft 231kts
19-Aug-21 02:17 43.849220 -110.618998 198 11003ft 182kts
19-Aug-21 02:18 43.806166 -110.640453 197 10421ft 155kts
19-Aug-21 02:19 43.766817 -110.659746 199 9627ft 146kts
19-Aug-21 02:20 43.729297 -110.678099 198 8842ft 140kts
19-Aug-21 02:21 43.692948 -110.695917 198 8092ft 138kts
19-Aug-21 02:22 43.656766 -110.713615 199 7338ft 136kts
19-Aug-21 02:23 43.620988 -110.731081 199 6608ft 136kts
19-Aug-21 02:24 43.599807 -110.741238 150 6415ft 4kts
19-Aug-21 02:25 43.599704 -110.739867 26 6417ft 5kts
19-Aug-21 02:26 43.602144 -110.738680 19 6422ft 7kts
19-Aug-21 02:27 43.601938 -110.738785 199 6421ft 4kts
19-Aug-21 02:28 43.600257 -110.739597 185 6418ft 5kts
19-Aug-21 02:29 43.599507 -110.738545 195 6417ft 3kts
19-Aug-21 02:30 43.599304 -110.738834 287 6417ft 0kts
19-Aug-21 02:31 43.599304 -110.738834 287 6417ft 0kts
19-Aug-21 02:32 43.599304 -110.738834 287 6417ft 0kts
19-Aug-21 02:33 43.599304 -110.738834 287 6417ft 0kts

Navigation Log

Ident Type
Flight plan parsing failed, navigation log unavailable